Time;durP1;ratioP1;P1;durP2;ratioP2;P2;SDS_P1;SDS_P2;PMS_P1;PMS_P2;Temp;Humidity;BMP_temperature;BMP_pressure;BME280_temperature;BME280_humidity;BME280_pressure;Samples;Min_cycle;Max_cycle;Signal;HPM_P1;HPM_P2
2022/07/25 00:01:21;;;;;;;12.47;11.47;;;23.10;94.70;;;;;;4983446;28;20968;-81
2022/07/25 00:03:51;;;;;;;12.30;11.30;;;23.10;94.80;;;;;;5001009;28;20468;-81
2022/07/25 00:06:23;;;;;;;12.50;11.20;;;23.00;94.80;;;;;;5000929;28;20429;-81
2022/07/25 00:08:51;;;;;;;12.87;11.77;;;23.00;94.80;;;;;;5000981;28;20441;-80
2022/07/25 00:11:19;;;;;;;12.90;11.80;;;23.00;94.80;;;;;;4983692;28;20877;-80
2022/07/25 00:13:48;;;;;;;14.17;12.77;;;22.90;94.80;;;;;;4982752;28;20476;-80
2022/07/25 00:16:16;;;;;;;14.27;12.20;;;22.90;94.90;;;;;;4983118;28;20449;-80
2022/07/25 00:18:44;;;;;;;11.10;10.30;;;22.90;94.90;;;;;;5000523;28;20839;-80
2022/07/25 00:21:14;;;;;;;13.57;12.37;;;22.90;94.90;;;;;;5000366;28;20534;-80
2022/07/25 00:23:42;;;;;;;14.10;12.80;;;22.80;94.90;;;;;;4999192;28;20508;-80
2022/07/25 00:26:10;;;;;;;13.10;11.90;;;22.80;95.00;;;;;;4982543;28;20815;-80
2022/07/25 00:28:39;;;;;;;12.70;11.70;;;22.80;95.00;;;;;;4999954;28;20880;-80
2022/07/25 00:31:07;;;;;;;13.87;12.50;;;22.80;95.00;;;;;;4982205;28;20519;-80
2022/07/25 00:33:35;;;;;;;13.20;12.10;;;22.70;95.10;;;;;;5000012;28;20472;-80
2022/07/25 00:36:04;;;;;;;12.83;11.73;;;22.70;95.10;;;;;;4998510;28;20445;-80
2022/07/25 00:38:34;;;;;;;12.20;11.20;;;22.70;95.50;;;;;;4982329;28;21044;-80
2022/07/25 00:41:03;;;;;;;12.40;11.33;;;22.60;95.20;;;;;;5001581;28;20449;-81
2022/07/25 00:43:32;;;;;;;13.30;12.10;;;22.60;95.30;;;;;;4983877;28;20469;-81
2022/07/25 00:46:00;;;;;;;14.90;13.70;;;22.60;95.40;;;;;;4983427;28;20452;-81
2022/07/25 00:48:31;;;;;;;11.40;10.60;;;22.50;95.40;;;;;;4983874;28;20482;-81
2022/07/25 00:51:00;;;;;;;12.60;11.60;;;22.50;95.40;;;;;;4983222;28;20480;-81
2022/07/25 00:53:28;;;;;;;13.67;12.53;;;22.50;95.40;;;;;;4982414;28;20477;-81
2022/07/25 00:55:59;;;;;;;12.27;11.37;;;22.40;95.40;;;;;;5000613;28;20787;-81
2022/07/25 00:58:27;;;;;;;12.43;11.50;;;22.40;95.50;;;;;;5000016;28;20437;-80
2022/07/25 01:00:55;;;;;;;12.80;11.73;;;22.40;95.60;;;;;;4999485;28;20457;-80
2022/07/25 01:03:23;;;;;;;14.10;12.90;;;22.30;95.60;;;;;;4981943;28;20462;-80
2022/07/25 01:05:52;;;;;;;12.70;11.70;;;22.30;95.60;;;;;;4999481;28;20440;-81
2022/07/25 01:08:22;;;;;;;13.10;12.00;;;22.20;95.60;;;;;;4982308;28;20472;-81
2022/07/25 01:10:50;;;;;;;13.00;11.80;;;22.20;95.70;;;;;;4998326;28;20440;-81
2022/07/25 01:13:20;;;;;;;13.73;12.63;;;22.20;95.70;;;;;;4999395;28;20487;-81
2022/07/25 01:15:48;;;;;;;13.77;12.70;;;22.20;95.80;;;;;;4981691;28;20541;-80
2022/07/25 01:18:16;;;;;;;13.93;12.80;;;22.10;95.80;;;;;;4981632;28;20480;-81
2022/07/25 01:20:46;;;;;;;13.00;12.00;;;22.10;96.20;;;;;;4981720;28;20892;-81
2022/07/25 01:23:14;;;;;;;13.43;12.43;;;22.10;96.00;;;;;;4981554;28;20504;-81
2022/07/25 01:25:43;;;;;;;13.07;11.97;;;22.00;96.00;;;;;;4997599;28;20823;-81
2022/07/25 01:28:11;;;;;;;13.17;12.13;;;22.00;96.00;;;;;;4997867;28;20451;-81
2022/07/25 01:30:40;;;;;;;13.13;12.13;;;22.00;96.30;;;;;;4997740;28;20500;-80
2022/07/25 01:33:08;;;;;;;14.03;12.63;;;21.90;96.10;;;;;;4997935;28;20842;-80
2022/07/25 01:35:36;;;;;;;13.33;12.23;;;21.90;96.20;;;;;;4998045;28;20444;-80
2022/07/25 01:38:12;;;;;;;13.67;12.57;;;21.90;96.20;;;;;;4979813;28;20792;-80
2022/07/25 01:40:41;;;;;;;12.60;11.67;;;21.80;96.30;;;;;;4979655;28;20480;-80
2022/07/25 01:43:10;;;;;;;13.43;12.33;;;21.80;96.30;;;;;;4979969;28;20930;-80
2022/07/25 01:45:38;;;;;;;12.80;11.83;;;21.80;96.40;;;;;;4979938;28;20461;-80
2022/07/25 01:48:07;;;;;;;13.23;12.13;;;21.70;96.40;;;;;;4997639;28;20445;-80
2022/07/25 01:50:35;;;;;;;12.63;11.63;;;21.70;96.40;;;;;;4980173;28;20844;-80
2022/07/25 01:53:04;;;;;;;12.47;11.37;;;21.70;96.40;;;;;;4997308;28;20994;-80
2022/07/25 01:55:34;;;;;;;12.00;11.10;;;21.70;96.50;;;;;;4980372;28;20472;-80
2022/07/25 01:58:03;;;;;;;13.17;12.07;;;21.60;96.50;;;;;;4997503;28;20961;-80
2022/07/25 02:00:33;;;;;;;13.93;12.73;;;21.60;96.50;;;;;;4980084;28;20934;-80
2022/07/25 02:05:47;;;;;;;12.60;11.70;;;21.50;96.60;;;;;;4979559;28;20986;-80
2022/07/25 02:08:15;;;;;;;12.30;11.27;;;21.50;96.70;;;;;;4979181;28;20452;-80
2022/07/25 02:10:45;;;;;;;13.13;12.10;;;21.50;97.00;;;;;;4979088;28;21028;-80
2022/07/25 02:13:13;;;;;;;13.30;12.30;;;21.50;96.80;;;;;;4996956;28;20457;-80
2022/07/25 02:15:42;;;;;;;11.57;10.67;;;21.50;96.80;;;;;;4978634;28;20571;-80
2022/07/25 02:18:10;;;;;;;12.63;11.63;;;21.40;96.80;;;;;;4979104;28;20503;-80
2022/07/25 02:20:38;;;;;;;12.63;11.63;;;21.40;96.90;;;;;;4979365;28;20954;-80
2022/07/25 02:23:06;;;;;;;13.50;12.50;;;21.40;96.90;;;;;;4996786;28;20470;-80
2022/07/25 02:25:35;;;;;;;14.37;13.07;;;21.40;97.00;;;;;;4978588;28;20449;-80
2022/07/25 02:28:05;;;;;;;13.70;12.50;;;21.30;97.00;;;;;;4996947;28;20452;-80
2022/07/25 02:30:33;;;;;;;13.60;12.40;;;21.30;97.10;;;;;;4979027;28;20456;-80
2022/07/25 02:33:01;;;;;;;12.47;11.50;;;21.30;97.10;;;;;;4979003;28;20464;-80
2022/07/25 02:35:30;;;;;;;13.30;12.30;;;21.20;97.20;;;;;;4978623;28;20469;-80
2022/07/25 02:37:58;;;;;;;13.77;12.37;;;21.20;97.20;;;;;;4999237;28;20432;-80
2022/07/25 02:40:26;;;;;;;13.67;12.37;;;21.20;97.50;;;;;;4982767;28;20551;-80
2022/07/25 02:42:54;;;;;;;13.97;12.40;;;21.20;97.40;;;;;;4982542;28;20977;-80
2022/07/25 02:45:24;;;;;;;13.03;11.90;;;21.10;97.40;;;;;;5000397;28;20532;-80
2022/07/25 02:47:52;;;;;;;12.50;11.50;;;21.10;97.50;;;;;;5001625;28;20544;-79
2022/07/25 02:50:20;;;;;;;11.80;10.90;;;21.10;97.50;;;;;;5002477;28;20539;-80
2022/07/25 02:52:49;;;;;;;12.90;11.90;;;21.10;97.50;;;;;;4984157;28;20471;-80
2022/07/25 02:55:17;;;;;;;12.50;11.50;;;21.10;97.60;;;;;;5001810;28;20483;-80
2022/07/25 02:57:45;;;;;;;12.37;11.20;;;21.00;97.80;;;;;;4983718;28;20516;-80
2022/07/25 03:00:15;;;;;;;13.77;12.77;;;21.00;97.60;;;;;;4983280;28;20503;-80
2022/07/25 03:02:44;;;;;;;12.87;11.67;;;21.00;97.60;;;;;;4983523;28;20507;-80
2022/07/25 03:05:16;;;;;;;11.73;10.83;;;21.00;97.60;;;;;;5002118;28;20444;-82
2022/07/25 03:07:45;;;;;;;13.10;12.03;;;21.00;97.70;;;;;;5001797;28;20515;-80
2022/07/25 03:10:15;;;;;;;12.63;11.53;;;20.90;97.70;;;;;;4983210;28;20556;-80
2022/07/25 03:12:44;;;;;;;12.20;11.30;;;20.90;97.70;;;;;;4983025;28;20564;-80
2022/07/25 03:15:13;;;;;;;12.67;11.67;;;20.90;97.70;;;;;;4982214;28;20526;-80
2022/07/25 03:17:41;;;;;;;13.13;11.73;;;20.90;97.80;;;;;;5001465;28;20447;-80
2022/07/25 03:20:11;;;;;;;12.57;11.20;;;20.80;97.80;;;;;;5000393;28;20821;-80
2022/07/25 03:22:41;;;;;;;12.40;11.30;;;20.80;97.80;;;;;;4999861;28;20502;-80
2022/07/25 03:25:09;;;;;;;11.60;10.63;;;20.80;97.80;;;;;;5000120;28;20524;-80
2022/07/25 03:27:49;;;;;;;12.90;11.37;;;20.80;97.90;;;;;;4981951;28;20440;-80
2022/07/25 03:30:17;;;;;;;11.53;10.53;;;20.80;97.90;;;;;;4982581;28;20993;-80
2022/07/25 03:32:46;;;;;;;16.40;14.80;;;20.80;97.90;;;;;;5000274;28;21001;-80
2022/07/25 03:35:16;;;;;;;20.30;18.60;;;20.70;97.90;;;;;;4983170;28;20469;-80
2022/07/25 03:37:44;;;;;;;31.83;28.63;;;20.70;98.00;;;;;;4982648;28;20445;-80
2022/07/25 03:40:13;;;;;;;24.37;22.27;;;20.70;98.00;;;;;;4999805;28;20444;-80
2022/07/25 03:42:42;;;;;;;23.20;21.00;;;20.70;98.00;;;;;;4999857;28;20465;-80
2022/07/25 03:45:11;;;;;;;24.07;21.80;;;20.70;98.10;;;;;;4981802;28;20496;-80
2022/07/25 03:47:39;;;;;;;24.23;21.93;;;20.70;98.10;;;;;;4981760;28;20460;-80
2022/07/25 03:50:08;;;;;;;22.90;20.90;;;20.70;98.10;;;;;;4980313;28;20540;-80
2022/07/25 03:52:37;;;;;;;29.90;26.77;;;20.60;98.10;;;;;;4980966;28;20464;-80
2022/07/25 03:55:07;;;;;;;15.17;13.77;;;20.60;98.20;;;;;;4981538;28;20512;-80
2022/07/25 03:57:37;;;;;;;12.53;11.43;;;20.60;98.20;;;;;;4998948;28;20436;-80
2022/07/25 04:00:08;;;;;;;11.57;10.53;;;20.60;98.30;;;;;;4981772;28;20485;-80
2022/07/25 04:02:37;;;;;;;12.27;11.27;;;20.60;98.30;;;;;;4999969;28;20488;-80
2022/07/25 04:05:06;;;;;;;12.73;11.73;;;20.60;98.40;;;;;;4982651;28;21022;-80
2022/07/25 04:07:35;;;;;;;11.67;10.67;;;20.60;98.40;;;;;;4982270;28;20457;-81
2022/07/25 04:10:06;;;;;;;12.03;10.97;;;20.60;98.40;;;;;;4982171;28;20444;-81
2022/07/25 04:12:34;;;;;;;10.00;9.17;;;20.60;98.50;;;;;;4981810;28;20468;-81
2022/07/25 04:15:03;;;;;;;12.20;11.07;;;20.60;98.50;;;;;;4982278;28;20874;-80
2022/07/25 04:17:31;;;;;;;10.73;9.87;;;20.60;98.50;;;;;;4981669;28;20441;-80
2022/07/25 04:19:59;;;;;;;11.47;10.60;;;20.60;98.60;;;;;;4981556;28;20946;-81
2022/07/25 04:22:28;;;;;;;10.60;9.80;;;20.60;98.60;;;;;;4999375;28;20468;-80
2022/07/25 04:24:56;;;;;;;11.73;10.70;;;20.60;98.60;;;;;;4982000;28;20548;-80
2022/07/25 04:27:25;;;;;;;11.47;10.40;;;20.70;98.70;;;;;;4997918;28;20460;-80
2022/07/25 04:29:54;;;;;;;9.93;9.13;;;20.70;98.70;;;;;;4982170;28;21087;-80
2022/07/25 04:32:22;;;;;;;11.27;10.17;;;20.70;98.80;;;;;;4981841;28;20475;-80
2022/07/25 04:34:51;;;;;;;10.75;9.95;;;20.70;98.80;;;;;;4999056;28;20804;-80
2022/07/25 04:37:19;;;;;;;10.50;9.60;;;20.70;98.80;;;;;;4981799;28;21037;-80
2022/07/25 04:39:47;;;;;;;10.50;9.50;;;20.70;98.80;;;;;;4999283;28;20445;-80
2022/07/25 04:42:15;;;;;;;9.83;9.13;;;20.80;98.90;;;;;;4980756;28;20563;-80
2022/07/25 04:44:45;;;;;;;10.67;9.70;;;20.80;98.90;;;;;;4998693;28;20825;-80
2022/07/25 04:47:13;;;;;;;10.03;9.23;;;20.80;98.90;;;;;;4981385;28;20794;-80
2022/07/25 04:49:41;;;;;;;10.30;9.30;;;20.80;98.80;;;;;;4981684;28;20536;-80
2022/07/25 04:52:10;;;;;;;9.57;8.77;;;20.90;98.90;;;;;;4980941;28;20488;-80
2022/07/25 04:54:38;;;;;;;11.10;10.10;;;20.90;98.90;;;;;;4980971;28;20445;-80
2022/07/25 04:57:06;;;;;;;9.87;8.87;;;20.90;98.80;;;;;;4980656;28;20483;-80
2022/07/25 04:59:34;;;;;;;11.30;10.30;;;21.00;98.90;;;;;;4998387;28;20432;-80
2022/07/25 05:02:04;;;;;;;10.50;9.60;;;21.10;98.90;;;;;;4980695;28;20536;-80
2022/07/25 05:04:32;;;;;;;11.80;10.70;;;21.00;98.80;;;;;;4980353;28;20877;-81
2022/07/25 05:07:02;;;;;;;9.73;8.97;;;21.10;98.80;;;;;;4979956;28;20877;-80
2022/07/25 05:09:30;;;;;;;9.50;8.57;;;21.10;99.10;;;;;;4998488;28;20481;-80
2022/07/25 05:11:59;;;;;;;10.37;9.40;;;21.10;98.80;;;;;;4980442;28;21009;-80
2022/07/25 05:14:27;;;;;;;10.00;9.07;;;21.20;98.80;;;;;;4997131;28;20433;-77
2022/07/25 05:16:55;;;;;;;9.70;8.80;;;21.20;98.80;;;;;;4977268;28;20833;-77
2022/07/25 05:19:25;;;;;;;10.77;9.03;;;21.30;98.80;;;;;;4977260;28;20503;-77
2022/07/25 05:21:53;;;;;;;12.27;11.27;;;21.30;98.80;;;;;;4977234;28;20507;-77
2022/07/25 05:24:22;;;;;;;9.67;8.87;;;21.30;98.80;;;;;;4994580;28;20445;-77
2022/07/25 05:26:50;;;;;;;10.20;9.10;;;21.40;98.80;;;;;;4994610;28;20965;-77
2022/07/25 05:29:18;;;;;;;9.33;8.60;;;21.40;98.70;;;;;;4976925;28;20462;-77
2022/07/25 05:31:47;;;;;;;9.53;8.63;;;21.40;98.70;;;;;;4978225;28;20524;-77
2022/07/25 05:34:15;;;;;;;10.47;9.47;;;21.50;98.70;;;;;;4995617;28;20459;-77
2022/07/25 05:36:44;;;;;;;9.37;8.50;;;21.50;98.70;;;;;;4994380;28;20551;-77
2022/07/25 05:39:14;;;;;;;9.70;8.50;;;21.60;98.70;;;;;;4978312;28;20529;-79
2022/07/25 05:41:42;;;;;;;9.73;8.83;;;21.70;98.70;;;;;;4981088;28;20955;-80
2022/07/25 05:44:11;;;;;;;9.20;8.50;;;21.70;98.70;;;;;;4998580;28;20444;-79
2022/07/25 05:46:39;;;;;;;9.33;8.53;;;21.80;98.70;;;;;;4999053;28;20965;-79
2022/07/25 05:49:07;;;;;;;10.33;9.23;;;21.80;98.70;;;;;;4979047;28;20544;-76
2022/07/25 05:51:35;;;;;;;9.77;8.77;;;21.90;98.70;;;;;;4978858;28;20467;-79
2022/07/25 05:54:05;;;;;;;13.10;8.70;;;22.00;98.70;;;;;;4979280;28;20448;-79
2022/07/25 05:56:34;;;;;;;11.20;10.17;;;22.20;98.80;;;;;;4979589;28;20471;-79
2022/07/25 05:59:02;;;;;;;12.77;11.47;;;22.40;98.80;;;;;;4997069;28;20476;-79
2022/07/25 06:01:31;;;;;;;11.03;10.03;;;22.60;98.80;;;;;;4996040;28;20440;-78
2022/07/25 06:03:59;;;;;;;12.37;11.20;;;22.80;98.80;;;;;;4977307;28;21010;-77
2022/07/25 06:06:29;;;;;;;12.90;11.80;;;23.00;98.90;;;;;;4995329;28;20444;-79
2022/07/25 06:08:57;;;;;;;11.00;9.97;;;23.20;98.90;;;;;;4978900;28;20492;-78
2022/07/25 06:11:29;;;;;;;9.33;8.37;;;23.30;98.80;;;;;;4978172;28;20517;-78
2022/07/25 06:13:58;;;;;;;8.93;8.10;;;23.50;98.80;;;;;;4978520;28;20540;-78
2022/07/25 06:16:27;;;;;;;8.47;7.67;;;23.80;98.70;;;;;;4978514;28;20534;-78
2022/07/25 06:18:55;;;;;;;10.23;9.23;;;24.00;98.60;;;;;;4980191;28;20472;-78
2022/07/25 06:21:23;;;;;;;9.00;8.30;;;24.20;98.50;;;;;;4979349;28;20484;-78
2022/07/25 06:23:52;;;;;;;10.27;9.27;;;24.40;98.30;;;;;;4980074;28;20905;-79
2022/07/25 06:26:20;;;;;;;10.07;9.20;;;24.70;98.20;;;;;;4998412;28;20453;-79
2022/07/25 06:28:49;;;;;;;9.17;8.37;;;24.90;98.10;;;;;;4997422;28;20802;-79
2022/07/25 06:31:18;;;;;;;9.30;8.60;;;25.10;97.90;;;;;;4977818;28;20460;-79
2022/07/25 06:33:46;;;;;;;8.33;7.60;;;25.40;97.80;;;;;;4994948;28;20818;-79
2022/07/25 06:36:14;;;;;;;9.13;8.37;;;25.50;97.70;;;;;;4978554;28;20523;-79
2022/07/25 06:38:43;;;;;;;8.40;7.80;;;25.70;97.40;;;;;;4997366;28;20797;-79
2022/07/25 06:41:15;;;;;;;8.43;7.77;;;25.90;97.20;;;;;;4996935;28;20495;-80
2022/07/25 06:43:43;;;;;;;8.87;8.07;;;26.10;96.80;;;;;;4979390;28;20519;-78
2022/07/25 06:46:12;;;;;;;8.93;8.13;;;26.10;96.60;;;;;;4978601;28;20456;-80
2022/07/25 06:48:40;;;;;;;8.93;8.27;;;26.20;96.40;;;;;;4979838;28;20840;-80
2022/07/25 06:51:09;;;;;;;9.03;8.33;;;26.30;96.30;;;;;;4997058;28;20472;-80
2022/07/25 06:53:37;;;;;;;8.80;7.90;;;26.40;96.00;;;;;;4997547;28;20465;-79
2022/07/25 06:56:06;;;;;;;8.60;8.00;;;26.60;96.00;;;;;;4996372;28;20931;-80
2022/07/25 06:58:34;;;;;;;8.73;7.93;;;26.90;95.90;;;;;;4978946;28;20962;-80
2022/07/25 07:01:03;;;;;;;8.70;7.97;;;27.10;95.80;;;;;;4997271;28;20460;-80
2022/07/25 07:03:36;;;;;;;9.23;8.53;;;27.30;95.70;;;;;;4996743;28;20471;-80
2022/07/25 07:06:05;;;;;;;10.80;9.00;;;27.50;95.40;;;;;;4997778;28;20433;-80
2022/07/25 07:08:34;;;;;;;8.80;8.20;;;27.60;95.00;;;;;;4981969;28;20516;-80
2022/07/25 07:11:02;;;;;;;8.90;8.00;;;27.80;94.70;;;;;;4999531;28;20456;-80
2022/07/25 07:13:30;;;;;;;9.33;8.57;;;27.80;94.40;;;;;;4977967;28;20477;-79
2022/07/25 07:15:58;;;;;;;9.43;8.53;;;27.80;94.20;;;;;;4995597;28;20480;-79
2022/07/25 07:18:27;;;;;;;8.70;8.00;;;27.80;94.20;;;;;;4995354;28;20981;-79
2022/07/25 07:20:56;;;;;;;9.20;8.40;;;27.70;94.00;;;;;;4978362;28;20823;-80
2022/07/25 07:23:25;;;;;;;8.83;8.13;;;27.60;93.90;;;;;;4995562;28;20990;-79
2022/07/25 07:25:55;;;;;;;8.80;8.10;;;27.50;93.80;;;;;;4998605;28;20421;-79
2022/07/25 07:28:24;;;;;;;8.97;8.27;;;27.50;93.80;;;;;;4980946;28;20444;-80
2022/07/25 07:30:52;;;;;;;9.50;8.67;;;27.50;93.80;;;;;;4982210;28;20452;-79
2022/07/25 07:33:41;;;;;;;9.20;8.50;;;27.40;93.80;;;;;;4980757;28;21028;-79
2022/07/25 07:36:11;;;;;;;9.03;8.30;;;27.40;93.80;;;;;;4983587;28;20453;-79
2022/07/25 07:38:40;;;;;;;9.30;8.40;;;27.30;93.80;;;;;;5000414;28;20469;-79
2022/07/25 07:41:08;;;;;;;8.83;8.10;;;27.30;93.90;;;;;;4981998;28;20801;-80
2022/07/25 07:43:37;;;;;;;8.70;8.00;;;27.30;93.90;;;;;;4999224;28;20463;-79
2022/07/25 07:46:05;;;;;;;8.80;8.03;;;27.30;93.80;;;;;;4999503;28;20445;-79
2022/07/25 07:48:34;;;;;;;8.97;8.10;;;27.40;93.80;;;;;;4999716;28;20441;-79
2022/07/25 07:51:03;;;;;;;8.90;8.20;;;27.40;93.80;;;;;;4982095;28;20448;-79
2022/07/25 07:56:18;;;;;;;9.10;8.40;;;27.50;93.60;;;;;;5011093;28;20409;-79
2022/07/25 07:58:47;;;;;;;9.50;8.77;;;27.50;93.60;;;;;;5008841;28;20829;-79
2022/07/25 08:01:15;;;;;;;9.00;8.30;;;27.60;93.50;;;;;;4982806;28;20453;-79
2022/07/25 08:03:43;;;;;;;12.20;11.20;;;27.60;93.40;;;;;;5000325;28;20472;-79
2022/07/25 08:06:11;;;;;;;8.93;8.20;;;27.60;93.40;;;;;;4981342;28;20540;-78
2022/07/25 08:08:41;;;;;;;10.30;9.30;;;27.70;93.40;;;;;;4997586;28;20524;-79
2022/07/25 08:11:09;;;;;;;8.87;8.07;;;27.80;93.40;;;;;;4998809;28;20469;-79
2022/07/25 08:13:38;;;;;;;8.67;7.97;;;27.80;93.40;;;;;;5000193;28;20909;-79
2022/07/25 08:16:06;;;;;;;9.23;8.30;;;28.00;93.50;;;;;;4982596;28;20543;-79
2022/07/25 08:18:34;;;;;;;10.30;9.10;;;28.00;93.50;;;;;;5000535;28;20468;-79
2022/07/25 08:21:05;;;;;;;9.50;8.80;;;28.10;93.40;;;;;;4982326;28;20539;-79
2022/07/25 08:23:34;;;;;;;8.57;7.90;;;28.30;93.40;;;;;;4999898;28;20514;-79
2022/07/25 08:26:04;;;;;;;9.17;8.47;;;28.40;93.30;;;;;;4999829;28;20449;-80
2022/07/25 08:28:32;;;;;;;10.40;9.30;;;28.60;93.40;;;;;;4982493;28;20459;-79
2022/07/25 08:31:00;;;;;;;9.07;8.23;;;28.80;93.30;;;;;;4981674;28;20445;-79
2022/07/25 08:33:29;;;;;;;9.43;8.30;;;29.00;93.20;;;;;;4981320;28;20476;-79
2022/07/25 08:35:58;;;;;;;9.67;8.90;;;29.10;92.80;;;;;;4998909;28;20445;-80
2022/07/25 08:38:28;;;;;;;9.30;8.50;;;29.10;93.00;;;;;;4982076;28;20508;-79
2022/07/25 08:40:58;;;;;;;9.80;8.93;;;29.10;92.80;;;;;;5000243;28;20433;-79
2022/07/25 08:43:31;;;;;;;9.47;8.40;;;29.20;92.80;;;;;;4998595;28;20461;-79
2022/07/25 08:46:01;;;;;;;8.70;8.10;;;29.20;92.60;;;;;;4981424;28;20468;-79
2022/07/25 08:48:30;;;;;;;9.10;8.40;;;29.20;92.40;;;;;;4981841;28;20628;-79
2022/07/25 08:51:00;;;;;;;10.20;8.83;;;29.30;92.30;;;;;;4998416;28;20445;-79
2022/07/25 08:53:29;;;;;;;8.60;7.87;;;29.20;92.10;;;;;;4981696;28;20571;-79
2022/07/25 08:56:01;;;;;;;8.30;7.70;;;29.30;92.20;;;;;;4981357;28;20456;-79
2022/07/25 08:58:39;;;;;;;9.80;8.90;;;29.30;92.10;;;;;;4981266;28;20471;-78
2022/07/25 09:01:07;;;;;;;9.73;9.03;;;29.40;92.10;;;;;;4999025;28;20444;-81
2022/07/25 09:03:36;;;;;;;9.80;9.00;;;29.50;92.20;;;;;;4999833;28;20460;-80
2022/07/25 09:06:14;;;;;;;7.83;7.33;;;29.60;92.10;;;;;;4982372;28;20452;-80
2022/07/25 09:08:52;;;;;;;8.73;8.03;;;29.70;92.00;;;;;;4998692;28;20437;-80
2022/07/25 09:11:31;;;;;;;9.27;8.37;;;29.80;91.80;;;;;;4981913;28;20444;-80
2022/07/25 09:14:03;;;;;;;9.80;8.90;;;29.80;91.50;;;;;;4981023;28;20479;-80
2022/07/25 09:16:35;;;;;;;9.03;8.13;;;29.90;91.50;;;;;;4999498;28;20428;-80
2022/07/25 09:19:13;;;;;;;9.10;8.40;;;29.90;91.10;;;;;;4996619;28;20460;-80
2022/07/25 09:21:42;;;;;;;9.20;8.40;;;30.00;90.90;;;;;;4979771;28;20452;-80
2022/07/25 09:24:15;;;;;;;9.50;8.73;;;30.10;90.90;;;;;;4979386;28;20444;-80
2022/07/25 09:26:48;;;;;;;9.23;8.43;;;30.10;91.00;;;;;;4979450;28;20445;-80
2022/07/25 09:29:24;;;;;;;8.60;8.00;;;30.10;90.90;;;;;;4978911;28;21013;-80
2022/07/25 09:31:54;;;;;;;9.00;8.20;;;30.10;90.80;;;;;;4996711;28;20431;-80
2022/07/25 09:34:36;;;;;;;9.30;8.50;;;30.20;90.70;;;;;;4997713;28;20540;-80
2022/07/25 09:37:07;;;;;;;8.80;8.00;;;30.30;90.50;;;;;;4981816;28;20942;-81
2022/07/25 09:39:38;;;;;;;8.70;8.10;;;30.40;90.40;;;;;;4981125;28;20985;-80
2022/07/25 09:42:19;;;;;;;9.47;8.67;;;30.40;90.50;;;;;;4980692;28;20530;-80
2022/07/25 09:45:10;;;;;;;8.83;8.13;;;30.60;90.30;;;;;;4981401;28;20547;-80
2022/07/25 09:47:54;;;;;;;8.57;7.87;;;30.70;90.20;;;;;;4997636;28;20425;-80
2022/07/25 09:50:25;;;;;;;11.33;8.77;;;30.80;90.30;;;;;;4980128;28;20824;-80
2022/07/25 09:52:55;;;;;;;8.97;8.17;;;30.90;90.20;;;;;;4991487;28;20465;-80
2022/07/25 09:55:24;;;;;;;9.07;8.37;;;31.00;90.10;;;;;;4982297;28;20456;-80
2022/07/25 09:57:52;;;;;;;8.63;7.93;;;31.00;90.00;;;;;;4995652;28;20444;-80
2022/07/25 10:00:24;;;;;;;8.40;7.70;;;31.10;89.50;;;;;;4995913;28;20449;-80
2022/07/25 10:03:07;;;;;;;9.00;8.30;;;31.20;89.20;;;;;;4996520;28;20835;-80
2022/07/25 10:05:49;;;;;;;7.90;7.30;;;31.30;89.00;;;;;;4980163;28;20815;-80
2022/07/25 10:08:19;;;;;;;9.43;8.63;;;31.30;88.60;;;;;;4979413;28;21001;-80
2022/07/25 10:10:49;;;;;;;9.17;8.47;;;31.30;88.20;;;;;;4981082;28;20472;-80
2022/07/25 10:13:30;;;;;;;8.97;8.17;;;31.30;87.90;;;;;;4996741;28;20475;-81
2022/07/25 10:16:01;;;;;;;8.57;7.87;;;31.30;87.60;;;;;;4978581;28;20447;-81
2022/07/25 10:18:31;;;;;;;8.13;7.53;;;31.30;87.50;;;;;;4978657;28;20556;-81
2022/07/25 10:21:11;;;;;;;8.73;8.03;;;31.30;87.10;;;;;;4978722;28;20445;-81
2022/07/25 10:24:04;;;;;;;8.13;7.53;;;31.30;86.60;;;;;;4978285;28;20527;-81
2022/07/25 10:26:37;;;;;;;8.20;7.60;;;31.30;86.50;;;;;;4977972;28;20451;-81
2022/07/25 10:29:09;;;;;;;8.40;7.80;;;31.30;86.40;;;;;;4995704;28;20428;-81
2022/07/25 10:31:43;;;;;;;8.47;7.77;;;31.30;86.40;;;;;;4978351;28;20515;-81
2022/07/25 10:34:27;;;;;;;8.30;7.60;;;31.30;86.70;;;;;;4981002;28;20448;-81
2022/07/25 10:37:10;;;;;;;8.53;7.93;;;31.30;86.70;;;;;;4987479;28;20495;-81
2022/07/25 10:39:39;;;;;;;9.23;8.43;;;31.40;86.40;;;;;;4996053;28;20867;-81
2022/07/25 10:42:13;;;;;;;8.67;7.97;;;31.40;86.40;;;;;;4978949;28;20461;-81
2022/07/25 10:44:43;;;;;;;8.50;7.70;;;31.50;86.40;;;;;;4996244;28;20526;-81
2022/07/25 10:47:15;;;;;;;7.90;7.30;;;31.40;86.10;;;;;;4980575;28;20526;-81
2022/07/25 10:49:46;;;;;;;9.13;8.23;;;31.50;85.60;;;;;;4991249;28;20445;-81
2022/07/25 10:52:41;;;;;;;8.20;7.40;;;31.60;85.30;;;;;;4991964;28;20472;-81
2022/07/25 10:55:10;;;;;;;8.57;7.80;;;31.60;84.60;;;;;;5007673;28;20424;-81
2022/07/25 10:57:38;;;;;;;8.40;7.70;;;31.60;84.20;;;;;;4989690;28;20456;-81
2022/07/25 11:00:27;;;;;;;8.97;8.27;;;31.60;83.80;;;;;;5012051;28;20828;-81
2022/07/25 11:02:57;;;;;;;8.50;7.90;;;31.60;83.40;;;;;;4996649;28;20537;-81
2022/07/25 11:05:26;;;;;;;8.17;7.57;;;31.60;83.50;;;;;;5006244;28;20495;-81
2022/07/25 11:07:55;;;;;;;8.60;7.90;;;31.60;83.40;;;;;;5004631;28;20437;-81
2022/07/25 11:10:50;;;;;;;8.20;7.60;;;31.70;83.50;;;;;;5000049;28;20492;-81
2022/07/25 11:13:19;;;;;;;8.40;7.70;;;31.60;83.40;;;;;;5007591;28;20881;-81
2022/07/25 11:15:47;;;;;;;9.03;8.13;;;31.60;83.20;;;;;;4992969;28;20455;-81
2022/07/25 11:18:18;;;;;;;9.13;8.33;;;31.60;83.00;;;;;;4994753;28;20511;-81
2022/07/25 11:20:46;;;;;;;7.97;7.37;;;31.60;83.00;;;;;;4995775;28;20452;-81
2022/07/25 11:23:21;;;;;;;8.00;7.40;;;31.60;83.00;;;;;;5001894;28;20496;-83
2022/07/25 11:25:50;;;;;;;9.27;8.37;;;31.70;83.20;;;;;;5003759;28;20507;-81
2022/07/25 11:28:18;;;;;;;8.57;7.97;;;31.80;83.00;;;;;;5004589;28;20504;-82
2022/07/25 11:30:47;;;;;;;8.80;8.13;;;31.90;83.10;;;;;;5020906;28;20432;-82
2022/07/25 11:33:18;;;;;;;8.50;7.80;;;31.80;82.80;;;;;;4988426;28;20473;-82
2022/07/25 11:35:55;;;;;;;8.40;7.77;;;31.80;82.90;;;;;;5001248;28;20593;-82
2022/07/25 11:38:28;;;;;;;8.80;8.10;;;31.80;83.10;;;;;;4999635;28;20448;-81
2022/07/25 11:40:56;;;;;;;8.70;8.00;;;31.70;82.90;;;;;;4986921;28;20441;-82
2022/07/25 11:43:25;;;;;;;9.33;8.53;;;31.60;82.90;;;;;;4986264;28;20571;-82
2022/07/25 11:45:59;;;;;;;8.53;7.83;;;31.60;82.80;;;;;;4985586;28;20452;-82
2022/07/25 11:48:37;;;;;;;9.23;8.30;;;31.60;82.70;;;;;;4983650;28;20457;-82
2022/07/25 11:51:15;;;;;;;8.17;7.57;;;31.60;82.70;;;;;;4984206;28;20456;-82
2022/07/25 11:53:48;;;;;;;9.00;8.30;;;31.60;82.90;;;;;;4980681;28;20476;-81
2022/07/25 11:56:19;;;;;;;8.50;7.80;;;31.50;83.30;;;;;;4981438;28;20484;-81
2022/07/25 11:59:08;;;;;;;8.87;8.17;;;31.60;83.40;;;;;;4981756;28;20527;-82
2022/07/25 12:01:39;;;;;;;10.43;9.53;;;31.70;83.70;;;;;;4981876;28;20445;-82
2022/07/25 12:04:18;;;;;;;9.80;9.00;;;31.70;83.60;;;;;;5013044;23;20433;-81
2022/07/25 12:06:49;;;;;;;8.77;8.07;;;31.80;83.50;;;;;;5004706;28;20448;-82
2022/07/25 12:09:19;;;;;;;9.17;8.27;;;31.80;83.30;;;;;;5002998;28;20456;-83
2022/07/25 12:11:48;;;;;;;9.10;8.40;;;31.90;83.60;;;;;;4984153;28;20484;-82
2022/07/25 12:14:17;;;;;;;9.13;8.33;;;31.90;83.50;;;;;;4983875;28;20445;-81
2022/07/25 12:16:45;;;;;;;9.07;8.17;;;31.90;83.60;;;;;;4982891;28;20463;-81
2022/07/25 12:19:22;;;;;;;9.03;8.43;;;32.00;83.50;;;;;;4985165;28;20567;-82
2022/07/25 12:21:50;;;;;;;9.07;8.17;;;31.90;83.00;;;;;;4987534;28;20503;-82
2022/07/25 12:24:19;;;;;;;8.67;8.00;;;32.00;82.40;;;;;;4988457;28;20444;-81
2022/07/25 12:26:47;;;;;;;9.40;8.60;;;31.90;82.40;;;;;;4989926;28;20444;-81
2022/07/25 12:29:15;;;;;;;9.77;8.73;;;31.90;82.40;;;;;;5005808;28;20440;-82
2022/07/25 12:31:45;;;;;;;9.80;8.90;;;31.80;82.20;;;;;;5004588;28;20439;-82
2022/07/25 12:34:13;;;;;;;9.30;8.53;;;31.80;82.20;;;;;;4989271;28;20453;-82
2022/07/25 12:36:44;;;;;;;9.73;8.97;;;31.80;82.20;;;;;;4987454;28;20834;-83
2022/07/25 12:39:42;;;;;;;10.40;9.60;;;31.70;82.30;;;;;;4982281;28;20480;-81
2022/07/25 12:42:10;;;;;;;10.77;9.97;;;31.70;82.50;;;;;;4982223;28;20469;-82
2022/07/25 12:44:39;;;;;;;10.47;9.57;;;31.60;82.70;;;;;;4999423;28;20448;-81
2022/07/25 12:47:07;;;;;;;10.87;10.07;;;31.70;83.30;;;;;;5001012;28;20464;-83
2022/07/25 12:49:36;;;;;;;11.40;10.50;;;31.80;83.50;;;;;;4982145;28;20444;-81
2022/07/25 13:02:46;;;;;;;13.47;12.40;;;31.70;84.30;;;;;;4998537;28;20487;-82
2022/07/25 13:05:15;;;;;;;14.30;13.13;;;31.60;84.90;;;;;;4985504;28;20473;-81
2022/07/25 13:07:44;;;;;;;13.30;12.30;;;31.40;85.30;;;;;;5002472;28;20453;-82
2022/07/25 13:10:12;;;;;;;14.93;13.73;;;31.40;86.10;;;;;;4984646;28;20480;-82